createdAt,value
2023-04-10T00:03:02.425Z,101169.48
2023-04-10T00:07:06.974Z,101169.55
2023-04-10T00:11:10.173Z,101167.55
2023-04-10T00:15:13.552Z,101166.84
2023-04-10T00:19:17.247Z,101161.50
2023-04-10T00:23:20.538Z,101159.63
2023-04-10T00:27:23.674Z,101153.92
2023-04-10T00:31:27.020Z,101154.39
2023-04-10T00:35:30.087Z,101157.59
2023-04-10T00:39:33.548Z,101161.39
2023-04-10T00:43:37.170Z,101166.63
2023-04-10T00:47:41.243Z,101163.41
2023-04-10T00:51:44.720Z,101158.95
2023-04-10T00:55:49.801Z,101155.80
2023-04-10T00:59:53.439Z,101155.18
2023-04-10T01:03:57.295Z,101148.23
2023-04-10T01:08:18.115Z,101148.17
2023-04-10T01:12:21.345Z,101150.25
2023-04-10T01:16:31.673Z,101150.55
2023-04-10T01:20:39.863Z,101152.12
2023-04-10T01:25:14.279Z,101152.50
2023-04-10T01:29:21.426Z,101152.91
2023-04-10T01:33:32.934Z,101149.20
2023-04-10T01:37:43.844Z,101145.01
2023-04-10T01:41:51.269Z,101138.63
2023-04-10T01:45:55.052Z,101130.85
2023-04-10T01:49:59.587Z,101130.92
2023-04-10T01:54:06.381Z,101132.59
2023-04-10T01:58:11.024Z,101132.34
2023-04-10T02:02:14.442Z,101131.04
2023-04-10T02:06:42.656Z,101133.77
2023-04-10T02:11:03.409Z,101135.30
2023-04-10T02:15:08.936Z,101136.27
2023-04-10T02:19:13.510Z,101136.70
2023-04-10T02:23:17.839Z,101138.43
2023-04-10T02:27:30.619Z,101142.73
2023-04-10T02:31:33.917Z,101150.15
2023-04-10T02:35:39.790Z,101149.45
2023-04-10T02:39:43.467Z,101152.75
2023-04-10T02:43:47.077Z,101151.60
2023-04-10T02:47:51.243Z,101156.67
2023-04-10T02:51:54.831Z,101155.52
2023-04-10T02:55:58.662Z,101152.47
2023-04-10T03:00:03.122Z,101150.98
2023-04-10T03:04:06.868Z,101152.05
2023-04-10T03:08:10.542Z,101152.23
2023-04-10T03:12:13.917Z,101150.57
2023-04-10T03:16:20.166Z,101152.38
2023-04-10T03:20:23.548Z,101153.62
2023-04-10T03:24:27.402Z,101154.42
2023-04-10T03:28:33.126Z,101155.14
2023-04-10T03:32:36.498Z,101154.25
2023-04-10T03:36:40.306Z,101156.59
2023-04-10T03:40:43.895Z,101151.31
2023-04-10T03:44:47.708Z,101153.15
2023-04-10T03:48:53.010Z,101150.56
2023-04-10T03:52:56.591Z,101153.57
2023-04-10T03:57:01.779Z,101159.23
2023-04-10T04:01:05.976Z,101158.42
2023-04-10T04:05:09.939Z,101157.08
2023-04-10T04:09:13.689Z,101159.61
2023-04-10T04:13:17.319Z,101165.59
2023-04-10T04:21:51.440Z,101174.10
2023-04-10T04:25:57.132Z,101174.59
2023-04-10T04:30:08.378Z,101180.30
2023-04-10T04:34:12.965Z,101184.95
2023-04-10T04:38:20.346Z,101187.16
2023-04-10T04:46:50.559Z,101194.69
2023-04-10T04:50:57.510Z,101201.81
2023-04-10T04:55:08.518Z,101209.48
2023-04-10T05:17:15.876Z,101211.61
2023-04-10T05:25:58.160Z,101222.45
2023-04-10T05:43:10.564Z,101232.87
2023-04-10T05:47:17.876Z,101230.87
2023-04-10T05:51:23.338Z,101222.45
2023-04-10T05:59:37.540Z,101221.24
2023-04-10T06:03:47.719Z,101213.70
2023-04-10T06:07:56.892Z,101209.73
2023-04-10T06:12:01.698Z,101209.55
2023-04-10T06:16:06.326Z,101213.53
2023-04-10T06:20:10.426Z,101217.10
2023-04-10T06:24:16.076Z,101221.52
2023-04-10T06:28:19.601Z,101230.42
2023-04-10T06:32:23.824Z,101228.98
2023-04-10T06:36:27.817Z,101234.16
2023-04-10T06:40:31.109Z,101238.52
2023-04-10T06:44:36.780Z,101238.56
2023-04-10T06:48:39.998Z,101240.58
2023-04-10T06:52:45.501Z,101244.81
2023-04-10T06:56:49.054Z,101248.73
2023-04-10T07:00:52.399Z,101257.13
2023-04-10T07:04:56.959Z,101256.21
2023-04-10T07:08:59.989Z,101254.92
2023-04-10T07:13:03.118Z,101257.09
2023-04-10T07:17:06.613Z,101258.21
2023-04-10T07:21:14.682Z,101251.95
2023-04-10T07:25:18.663Z,101251.81
2023-04-10T07:29:22.105Z,101255.58
2023-04-10T07:33:28.057Z,101256.70
2023-04-10T07:37:31.014Z,101260.27
2023-04-10T07:41:33.959Z,101253.54
2023-04-10T07:45:37.000Z,101240.29
2023-04-10T07:49:40.415Z,101236.30
2023-04-10T07:53:43.488Z,101225.77
2023-04-10T07:57:47.108Z,101225.81
2023-04-10T08:01:50.631Z,101221.48
2023-04-10T08:05:53.745Z,101222.94
2023-04-10T08:09:57.260Z,101220.02
2023-04-10T08:14:02.493Z,101219.20
2023-04-10T08:18:05.666Z,101217.04
2023-04-10T08:22:09.382Z,101212.17
2023-04-10T08:26:12.737Z,101211.11
2023-04-10T08:30:15.731Z,101207.02
2023-04-10T08:34:18.939Z,101208.77
2023-04-10T08:38:23.967Z,101207.47
2023-04-10T08:42:27.562Z,101207.66
2023-04-10T08:46:36.802Z,101208.86
2023-04-10T08:50:46.485Z,101203.79
2023-04-10T08:54:56.322Z,101208.33
2023-04-10T08:59:01.631Z,101207.94
2023-04-10T09:03:08.914Z,101209.50
2023-04-10T09:07:12.221Z,101208.02
2023-04-10T09:11:15.536Z,101200.19
2023-04-10T09:15:18.836Z,101196.33
2023-04-10T09:19:32.821Z,101190.45
2023-04-10T09:23:36.320Z,101188.71
2023-04-10T09:27:40.237Z,101181.33
2023-04-10T09:31:44.137Z,101178.83
2023-04-10T09:35:50.593Z,101173.16
2023-04-10T09:39:54.549Z,101164.52
2023-04-10T09:44:21.194Z,101162.70
2023-04-10T09:49:01.014Z,101157.80
2023-04-10T09:54:23.425Z,101153.65
2023-04-10T09:58:29.636Z,101142.43
2023-04-10T10:02:51.961Z,101137.84
2023-04-10T10:07:28.813Z,101132.38
2023-04-10T10:12:31.606Z,101128.30
2023-04-10T10:17:33.936Z,101122.05
2023-04-10T10:21:44.632Z,101113.21
2023-04-10T10:25:52.070Z,101113.13
2023-04-10T10:30:01.252Z,101105.67
2023-04-10T10:39:18.617Z,101093.77
2023-04-10T10:44:14.722Z,101092.33
2023-04-10T10:53:29.078Z,101094.61
2023-04-10T10:58:28.107Z,101087.58
2023-04-10T11:02:42.544Z,101077.90
2023-04-10T11:11:25.407Z,101077.15
2023-04-10T11:15:53.020Z,101069.36
2023-04-10T11:20:40.104Z,101068.23
2023-04-10T11:24:52.978Z,101065.88
2023-04-10T11:28:57.025Z,101067.52
2023-04-10T11:33:01.956Z,101068.80
2023-04-10T11:37:07.280Z,101068.65
2023-04-10T11:41:11.001Z,101057.39
2023-04-10T11:45:29.086Z,101057.55
2023-04-10T11:49:34.970Z,101055.77
2023-04-10T11:53:48.747Z,101051.38
2023-04-10T11:58:10.182Z,101050.77
2023-04-10T12:02:28.712Z,101039.67
2023-04-10T12:16:49.198Z,101013.20
2023-04-10T12:21:44.338Z,101011.33
2023-04-10T12:26:43.558Z,101001.13
2023-04-10T12:31:33.424Z,100993.83
2023-04-10T12:36:12.420Z,100989.67
2023-04-10T12:40:42.845Z,100983.86
2023-04-10T12:45:05.048Z,100978.02
2023-04-10T12:49:32.279Z,100972.63
2023-04-10T12:53:54.582Z,100967.47
2023-04-10T13:08:26.411Z,100954.73
2023-04-10T13:12:48.841Z,100947.44
2023-04-10T13:21:46.850Z,100941.92
2023-04-10T13:25:56.916Z,100936.52
2023-04-10T13:34:58.092Z,100922.39
2023-04-10T13:39:18.825Z,100916.70
2023-04-10T13:43:45.930Z,100908.75
2023-04-10T13:48:37.354Z,100902.08
2023-04-10T13:53:13.901Z,100893.98
2023-04-10T13:58:28.960Z,100889.42
2023-04-10T14:07:15.976Z,100873.02
2023-04-10T14:16:36.239Z,100863.68
2023-04-10T14:25:49.881Z,100849.48
2023-04-10T14:44:48.148Z,100813.64
2023-04-10T15:11:42.981Z,100768.08
2023-04-10T15:16:02.445Z,100762.09
2023-04-10T15:20:19.884Z,100761.39
2023-04-10T15:24:22.999Z,100760.41
2023-04-10T15:28:28.369Z,100758.67
2023-04-10T15:32:31.505Z,100755.52
2023-04-10T15:36:34.568Z,100752.84
2023-04-10T15:40:37.767Z,100747.98
2023-04-10T15:44:40.973Z,100745.43
2023-04-10T15:48:46.356Z,100747.34
2023-04-10T15:52:50.251Z,100743.56
2023-04-10T15:56:53.339Z,100740.20
2023-04-10T16:00:57.029Z,100734.41
2023-04-10T16:05:00.163Z,100728.06
2023-04-10T16:09:06.220Z,100724.05
2023-04-10T16:13:13.017Z,100714.39
2023-04-10T16:17:16.189Z,100711.69
2023-04-10T16:21:21.380Z,100707.95
2023-04-10T16:25:27.428Z,100701.36
2023-04-10T16:29:30.769Z,100693.72
2023-04-10T16:33:33.981Z,100691.98
2023-04-10T16:37:37.738Z,100683.44
2023-04-10T16:41:41.198Z,100676.69
2023-04-10T16:45:44.188Z,100671.67
2023-04-10T16:49:47.279Z,100673.06
2023-04-10T16:53:50.398Z,100668.09
2023-04-10T16:57:53.571Z,100660.39
2023-04-10T17:01:56.508Z,100652.45
2023-04-10T17:05:59.763Z,100642.77
2023-04-10T17:10:03.335Z,100634.45
2023-04-10T17:14:07.486Z,100634.42
2023-04-10T17:18:11.322Z,100632.31
2023-04-10T17:22:17.488Z,100637.58
2023-04-10T17:26:23.324Z,100639.00
2023-04-10T17:30:26.419Z,100634.02
2023-04-10T17:34:29.712Z,100627.67
2023-04-10T17:38:32.516Z,100623.53
2023-04-10T17:42:35.579Z,100621.69
2023-04-10T17:46:38.384Z,100619.30
2023-04-10T17:50:44.872Z,100613.95
2023-04-10T17:54:49.929Z,100610.54
2023-04-10T17:58:55.234Z,100612.86
2023-04-10T18:03:13.367Z,100615.61
2023-04-10T18:07:16.683Z,100614.86
2023-04-10T18:11:20.227Z,100619.33
2023-04-10T18:15:23.725Z,100619.88
2023-04-10T18:19:29.672Z,100620.61
2023-04-10T18:23:34.396Z,100621.06
2023-04-10T18:28:13.958Z,100617.13
2023-04-10T18:32:19.081Z,100618.52
2023-04-10T18:40:40.568Z,100613.02
2023-04-10T18:49:01.254Z,100606.34
2023-04-10T18:53:04.944Z,100609.47
2023-04-10T18:57:10.222Z,100613.75
2023-04-10T19:01:13.459Z,100615.77
2023-04-10T19:05:17.157Z,100616.40
2023-04-10T19:14:06.471Z,100611.77
2023-04-10T19:18:13.034Z,100608.43
2023-04-10T19:22:19.306Z,100610.96
2023-04-10T19:26:23.225Z,100611.47
2023-04-10T19:30:26.645Z,100607.35
2023-04-10T19:34:30.546Z,100605.94
2023-04-10T19:38:33.929Z,100605.02
2023-04-10T19:42:38.053Z,100603.17
2023-04-10T19:46:41.755Z,100602.05
2023-04-10T19:50:45.089Z,100596.23
2023-04-10T19:54:48.243Z,100590.89
2023-04-10T19:58:51.393Z,100585.70
2023-04-10T20:02:54.842Z,100582.71
2023-04-10T20:06:58.334Z,100575.59
2023-04-10T20:11:02.043Z,100568.36
2023-04-10T20:15:05.709Z,100566.25
2023-04-10T20:19:08.815Z,100557.17
2023-04-10T20:23:12.925Z,100553.92
2023-04-10T20:27:16.441Z,100549.28
2023-04-10T20:31:19.873Z,100544.61
2023-04-10T20:35:23.352Z,100535.55
2023-04-10T20:39:26.548Z,100528.89
2023-04-10T20:43:29.749Z,100520.86
2023-04-10T20:47:32.940Z,100527.21
2023-04-10T20:51:37.454Z,100525.31
2023-04-10T20:55:40.826Z,100515.52
2023-04-10T20:59:45.542Z,100506.77
2023-04-10T21:03:48.759Z,100499.33
2023-04-10T21:07:51.998Z,100494.31
2023-04-10T21:11:55.898Z,100490.77
2023-04-10T21:33:33.608Z,100465.73
2023-04-10T21:37:41.656Z,100458.06
2023-04-10T21:41:47.735Z,100447.95
2023-04-10T21:45:51.321Z,100437.64
2023-04-10T21:49:54.955Z,100434.06
2023-04-10T21:53:58.530Z,100429.59
2023-04-10T21:58:01.993Z,100428.29
2023-04-10T22:02:05.556Z,100419.51
2023-04-10T22:06:09.860Z,100413.63
2023-04-10T22:10:18.180Z,100410.26
2023-04-10T22:14:22.998Z,100400.52
2023-04-10T22:18:28.487Z,100394.67
2023-04-10T22:22:32.252Z,100391.13
2023-04-10T22:26:35.788Z,100384.27
2023-04-10T22:30:43.476Z,100381.58
2023-04-10T22:44:07.811Z,100376.91
2023-04-10T22:57:03.142Z,100361.80
2023-04-10T23:01:08.440Z,100345.10
2023-04-10T23:05:11.882Z,100337.02
2023-04-10T23:09:16.341Z,100327.58
2023-04-10T23:18:06.797Z,100301.23
2023-04-10T23:22:41.706Z,100293.78
2023-04-10T23:31:32.956Z,100275.81
2023-04-10T23:35:38.020Z,100269.20
2023-04-10T23:40:12.814Z,100259.52
2023-04-10T23:44:20.873Z,100251.73
2023-04-10T23:48:42.838Z,100250.89
2023-04-10T23:57:46.651Z,100224.84
